sensor_id;sensor_type;location;lat;lon;timestamp;pressure;altitude;pressure_sealevel;temperature;humidity
14089;BME280;7120;52.890;6.040;2023-07-31T00:00:56;100845.94;;;15.72;100.00
14089;BME280;7120;52.890;6.040;2023-07-31T00:03:21;100839.19;;;15.60;100.00
14089;BME280;7120;52.890;6.040;2023-07-31T00:05:47;100836.56;;;15.64;100.00
14089;BME280;7120;52.890;6.040;2023-07-31T00:08:12;100836.13;;;15.62;100.00
14089;BME280;7120;52.890;6.040;2023-07-31T00:10:38;100841.94;;;15.60;100.00
14089;BME280;7120;52.890;6.040;2023-07-31T00:13:03;100831.56;;;15.66;100.00
14089;BME280;7120;52.890;6.040;2023-07-31T00:15:28;100826.97;;;15.70;100.00
14089;BME280;7120;52.890;6.040;2023-07-31T00:17:54;100830.22;;;15.72;100.00
14089;BME280;7120;52.890;6.040;2023-07-31T00:20:19;100835.22;;;15.70;100.00
14089;BME280;7120;52.890;6.040;2023-07-31T00:22:45;100833.44;;;15.74;100.00
14089;BME280;7120;52.890;6.040;2023-07-31T00:25:10;100831.00;;;15.73;100.00
14089;BME280;7120;52.890;6.040;2023-07-31T00:27:35;100829.34;;;15.80;100.00
14089;BME280;7120;52.890;6.040;2023-07-31T00:30:01;100827.22;;;15.77;100.00
14089;BME280;7120;52.890;6.040;2023-07-31T00:32:26;100829.78;;;15.82;100.00
14089;BME280;7120;52.890;6.040;2023-07-31T00:34:51;100844.81;;;15.73;100.00
14089;BME280;7120;52.890;6.040;2023-07-31T00:37:17;100836.53;;;15.73;100.00
14089;BME280;7120;52.890;6.040;2023-07-31T00:39:42;100842.31;;;15.80;100.00
14089;BME280;7120;52.890;6.040;2023-07-31T00:42:07;100835.50;;;15.77;100.00
14089;BME280;7120;52.890;6.040;2023-07-31T00:44:33;100822.94;;;15.88;100.00
14089;BME280;7120;52.890;6.040;2023-07-31T00:46:59;100816.56;;;16.09;100.00
14089;BME280;7120;52.890;6.040;2023-07-31T00:49:25;100805.09;;;16.19;100.00
14089;BME280;7120;52.890;6.040;2023-07-31T00:51:51;100788.69;;;16.23;100.00
14089;BME280;7120;52.890;6.040;2023-07-31T00:54:17;100791.19;;;16.28;100.00
14089;BME280;7120;52.890;6.040;2023-07-31T00:56:45;100771.38;;;16.13;100.00
14089;BME280;7120;52.890;6.040;2023-07-31T00:59:11;100784.31;;;16.22;100.00
14089;BME280;7120;52.890;6.040;2023-07-31T01:01:36;100764.66;;;16.23;100.00
14089;BME280;7120;52.890;6.040;2023-07-31T01:04:02;100763.25;;;16.17;100.00
14089;BME280;7120;52.890;6.040;2023-07-31T01:06:37;100763.00;;;16.10;100.00
14089;BME280;7120;52.890;6.040;2023-07-31T01:09:16;100765.75;;;16.10;100.00
14089;BME280;7120;52.890;6.040;2023-07-31T01:11:48;100775.41;;;16.04;100.00
14089;BME280;7120;52.890;6.040;2023-07-31T01:14:15;100781.47;;;15.97;100.00
14089;BME280;7120;52.890;6.040;2023-07-31T01:16:41;100783.66;;;16.04;100.00
14089;BME280;7120;52.890;6.040;2023-07-31T01:19:08;100771.38;;;16.01;100.00
14089;BME280;7120;52.890;6.040;2023-07-31T01:27:14;100772.13;;;15.89;100.00
14089;BME280;7120;52.890;6.040;2023-07-31T01:29:52;100772.88;;;16.11;100.00
14089;BME280;7120;52.890;6.040;2023-07-31T01:32:19;100773.38;;;16.25;100.00
14089;BME280;7120;52.890;6.040;2023-07-31T01:34:46;100778.00;;;16.45;100.00
14089;BME280;7120;52.890;6.040;2023-07-31T01:37:12;100775.34;;;16.49;100.00
14089;BME280;7120;52.890;6.040;2023-07-31T01:39:37;100759.63;;;16.50;100.00
14089;BME280;7120;52.890;6.040;2023-07-31T01:42:03;100758.91;;;16.40;100.00
14089;BME280;7120;52.890;6.040;2023-07-31T01:44:28;100755.34;;;16.40;100.00
14089;BME280;7120;52.890;6.040;2023-07-31T01:46:54;100754.50;;;16.27;100.00
14089;BME280;7120;52.890;6.040;2023-07-31T01:49:19;100758.44;;;16.26;100.00
14089;BME280;7120;52.890;6.040;2023-07-31T01:51:44;100764.25;;;16.12;100.00
14089;BME280;7120;52.890;6.040;2023-07-31T01:54:10;100749.56;;;16.20;100.00
14089;BME280;7120;52.890;6.040;2023-07-31T01:56:36;100750.94;;;16.27;100.00
14089;BME280;7120;52.890;6.040;2023-07-31T01:59:01;100753.28;;;16.49;100.00
14089;BME280;7120;52.890;6.040;2023-07-31T02:01:27;100741.69;;;16.43;100.00
14089;BME280;7120;52.890;6.040;2023-07-31T02:03:52;100734.53;;;16.55;100.00
14089;BME280;7120;52.890;6.040;2023-07-31T02:06:18;100737.88;;;16.36;100.00
14089;BME280;7120;52.890;6.040;2023-07-31T02:08:43;100715.53;;;16.41;100.00
14089;BME280;7120;52.890;6.040;2023-07-31T02:11:08;100717.84;;;16.39;100.00
14089;BME280;7120;52.890;6.040;2023-07-31T02:13:34;100724.88;;;16.48;100.00
14089;BME280;7120;52.890;6.040;2023-07-31T02:15:59;100727.06;;;16.55;100.00
14089;BME280;7120;52.890;6.040;2023-07-31T02:18:25;100716.50;;;16.57;100.00
14089;BME280;7120;52.890;6.040;2023-07-31T02:20:51;100705.22;;;16.50;100.00
14089;BME280;7120;52.890;6.040;2023-07-31T02:23:17;100702.56;;;16.54;100.00
14089;BME280;7120;52.890;6.040;2023-07-31T02:25:43;100693.03;;;16.63;100.00
14089;BME280;7120;52.890;6.040;2023-07-31T02:28:08;100687.50;;;16.75;100.00
14089;BME280;7120;52.890;6.040;2023-07-31T02:30:34;100709.72;;;16.79;100.00
14089;BME280;7120;52.890;6.040;2023-07-31T02:32:59;100706.25;;;16.70;100.00
14089;BME280;7120;52.890;6.040;2023-07-31T02:35:24;100693.03;;;16.63;100.00
14089;BME280;7120;52.890;6.040;2023-07-31T02:37:50;100700.16;;;16.77;100.00
14089;BME280;7120;52.890;6.040;2023-07-31T02:40:15;100692.75;;;16.68;100.00
14089;BME280;7120;52.890;6.040;2023-07-31T02:42:41;100684.38;;;16.40;100.00
14089;BME280;7120;52.890;6.040;2023-07-31T02:45:06;100681.28;;;16.42;100.00
14089;BME280;7120;52.890;6.040;2023-07-31T02:47:32;100688.88;;;16.45;100.00
14089;BME280;7120;52.890;6.040;2023-07-31T02:49:57;100679.66;;;16.41;100.00
14089;BME280;7120;52.890;6.040;2023-07-31T02:52:24;100685.75;;;16.34;100.00
14089;BME280;7120;52.890;6.040;2023-07-31T02:54:49;100694.75;;;16.43;100.00
14089;BME280;7120;52.890;6.040;2023-07-31T02:57:15;100681.53;;;16.37;100.00
14089;BME280;7120;52.890;6.040;2023-07-31T02:59:41;100686.94;;;16.21;100.00
14089;BME280;7120;52.890;6.040;2023-07-31T03:02:06;100679.09;;;16.23;100.00
14089;BME280;7120;52.890;6.040;2023-07-31T03:04:32;100684.72;;;16.14;100.00
14089;BME280;7120;52.890;6.040;2023-07-31T03:06:57;100684.97;;;16.22;100.00
14089;BME280;7120;52.890;6.040;2023-07-31T03:09:23;100677.59;;;16.26;100.00
14089;BME280;7120;52.890;6.040;2023-07-31T03:11:48;100676.59;;;16.42;100.00
14089;BME280;7120;52.890;6.040;2023-07-31T03:14:13;100680.59;;;16.45;100.00
14089;BME280;7120;52.890;6.040;2023-07-31T03:16:39;100672.84;;;16.63;100.00
14089;BME280;7120;52.890;6.040;2023-07-31T03:19:04;100681.28;;;16.66;100.00
14089;BME280;7120;52.890;6.040;2023-07-31T03:21:30;100675.56;;;16.71;100.00
14089;BME280;7120;52.890;6.040;2023-07-31T03:23:55;100668.41;;;16.70;100.00
14089;BME280;7120;52.890;6.040;2023-07-31T03:26:20;100674.38;;;16.85;100.00
14089;BME280;7120;52.890;6.040;2023-07-31T03:28:46;100654.91;;;16.93;100.00
14089;BME280;7120;52.890;6.040;2023-07-31T03:31:11;100645.59;;;16.86;100.00
14089;BME280;7120;52.890;6.040;2023-07-31T03:33:37;100654.41;;;17.03;100.00
14089;BME280;7120;52.890;6.040;2023-07-31T03:36:02;100639.59;;;16.84;100.00
14089;BME280;7120;52.890;6.040;2023-07-31T03:38:28;100658.03;;;16.80;100.00
14089;BME280;7120;52.890;6.040;2023-07-31T03:40:53;100656.16;;;16.96;100.00
14089;BME280;7120;52.890;6.040;2023-07-31T03:43:18;100654.78;;;16.90;100.00
14089;BME280;7120;52.890;6.040;2023-07-31T03:45:44;100663.63;;;16.95;100.00
14089;BME280;7120;52.890;6.040;2023-07-31T03:48:09;100655.97;;;16.77;100.00
14089;BME280;7120;52.890;6.040;2023-07-31T03:50:35;100662.38;;;16.93;100.00
14089;BME280;7120;52.890;6.040;2023-07-31T03:53:00;100671.63;;;16.72;100.00
14089;BME280;7120;52.890;6.040;2023-07-31T03:55:26;100666.44;;;16.59;100.00
14089;BME280;7120;52.890;6.040;2023-07-31T03:57:51;100662.53;;;16.72;100.00
14089;BME280;7120;52.890;6.040;2023-07-31T04:00:16;100659.19;;;16.79;100.00
14089;BME280;7120;52.890;6.040;2023-07-31T04:02:42;100653.41;;;16.84;100.00
14089;BME280;7120;52.890;6.040;2023-07-31T04:05:07;100663.22;;;16.81;100.00
14089;BME280;7120;52.890;6.040;2023-07-31T04:07:33;100660.56;;;16.85;100.00
14089;BME280;7120;52.890;6.040;2023-07-31T04:09:59;100655.63;;;16.78;100.00
14089;BME280;7120;52.890;6.040;2023-07-31T04:12:25;100657.03;;;16.72;100.00
14089;BME280;7120;52.890;6.040;2023-07-31T04:14:50;100648.16;;;16.79;100.00
14089;BME280;7120;52.890;6.040;2023-07-31T04:17:17;100654.63;;;16.70;100.00
14089;BME280;7120;52.890;6.040;2023-07-31T04:19:43;100651.94;;;16.62;100.00
14089;BME280;7120;52.890;6.040;2023-07-31T04:22:08;100661.03;;;16.74;100.00
14089;BME280;7120;52.890;6.040;2023-07-31T04:24:33;100668.97;;;16.64;100.00
14089;BME280;7120;52.890;6.040;2023-07-31T04:26:59;100674.47;;;16.76;100.00
14089;BME280;7120;52.890;6.040;2023-07-31T04:29:24;100676.00;;;16.73;100.00
14089;BME280;7120;52.890;6.040;2023-07-31T04:31:49;100666.53;;;16.62;100.00
14089;BME280;7120;52.890;6.040;2023-07-31T04:34:15;100666.88;;;16.61;100.00
14089;BME280;7120;52.890;6.040;2023-07-31T04:36:40;100662.28;;;16.65;100.00
14089;BME280;7120;52.890;6.040;2023-07-31T04:39:05;100654.00;;;16.53;100.00
14089;BME280;7120;52.890;6.040;2023-07-31T04:41:31;100660.78;;;16.67;100.00
14089;BME280;7120;52.890;6.040;2023-07-31T04:43:56;100656.88;;;16.68;100.00
14089;BME280;7120;52.890;6.040;2023-07-31T04:46:22;100658.97;;;16.71;100.00
14089;BME280;7120;52.890;6.040;2023-07-31T04:48:47;100670.91;;;16.75;100.00
14089;BME280;7120;52.890;6.040;2023-07-31T04:51:12;100652.59;;;16.83;100.00
14089;BME280;7120;52.890;6.040;2023-07-31T04:53:38;100642.63;;;16.79;100.00
14089;BME280;7120;52.890;6.040;2023-07-31T04:56:03;100650.06;;;16.90;100.00
14089;BME280;7120;52.890;6.040;2023-07-31T04:58:29;100632.78;;;16.93;100.00
14089;BME280;7120;52.890;6.040;2023-07-31T05:00:54;100641.28;;;17.00;100.00
14089;BME280;7120;52.890;6.040;2023-07-31T05:03:19;100640.16;;;16.89;100.00
14089;BME280;7120;52.890;6.040;2023-07-31T05:05:45;100642.25;;;16.92;100.00
14089;BME280;7120;52.890;6.040;2023-07-31T05:08:10;100641.84;;;17.06;100.00
14089;BME280;7120;52.890;6.040;2023-07-31T05:10:36;100631.72;;;16.98;100.00
14089;BME280;7120;52.890;6.040;2023-07-31T05:13:01;100633.16;;;16.92;100.00
14089;BME280;7120;52.890;6.040;2023-07-31T05:15:27;100635.41;;;17.02;100.00
14089;BME280;7120;52.890;6.040;2023-07-31T05:17:52;100637.63;;;16.96;100.00
14089;BME280;7120;52.890;6.040;2023-07-31T05:20:17;100637.16;;;16.94;100.00
14089;BME280;7120;52.890;6.040;2023-07-31T05:22:43;100632.88;;;16.97;100.00
14089;BME280;7120;52.890;6.040;2023-07-31T05:25:08;100622.03;;;17.04;100.00
14089;BME280;7120;52.890;6.040;2023-07-31T05:27:34;100612.59;;;17.05;100.00
14089;BME280;7120;52.890;6.040;2023-07-31T05:30:00;100614.63;;;17.20;100.00
14089;BME280;7120;52.890;6.040;2023-07-31T05:32:25;100610.91;;;17.00;100.00
14089;BME280;7120;52.890;6.040;2023-07-31T05:34:51;100620.19;;;17.08;100.00
14089;BME280;7120;52.890;6.040;2023-07-31T05:37:17;100616.03;;;17.14;100.00
14089;BME280;7120;52.890;6.040;2023-07-31T05:39:43;100612.38;;;17.26;100.00
14089;BME280;7120;52.890;6.040;2023-07-31T05:42:08;100598.38;;;17.19;100.00
14089;BME280;7120;52.890;6.040;2023-07-31T05:44:34;100593.97;;;17.02;100.00
14089;BME280;7120;52.890;6.040;2023-07-31T05:46:59;100606.88;;;17.26;100.00
14089;BME280;7120;52.890;6.040;2023-07-31T05:49:24;100608.63;;;17.18;100.00
14089;BME280;7120;52.890;6.040;2023-07-31T05:51:50;100597.13;;;17.16;100.00
14089;BME280;7120;52.890;6.040;2023-07-31T05:54:15;100596.13;;;17.37;100.00
14089;BME280;7120;52.890;6.040;2023-07-31T05:56:40;100592.91;;;17.35;100.00
14089;BME280;7120;52.890;6.040;2023-07-31T05:59:09;100593.44;;;17.40;100.00
14089;BME280;7120;52.890;6.040;2023-07-31T06:01:35;100593.72;;;17.35;100.00
14089;BME280;7120;52.890;6.040;2023-07-31T06:04:00;100592.63;;;17.40;100.00
14089;BME280;7120;52.890;6.040;2023-07-31T06:06:26;100582.91;;;17.30;100.00
14089;BME280;7120;52.890;6.040;2023-07-31T06:08:52;100582.72;;;17.39;100.00
14089;BME280;7120;52.890;6.040;2023-07-31T06:11:18;100579.16;;;17.38;100.00
14089;BME280;7120;52.890;6.040;2023-07-31T06:13:44;100582.84;;;17.42;100.00
14089;BME280;7120;52.890;6.040;2023-07-31T06:16:09;100581.06;;;17.34;100.00
14089;BME280;7120;52.890;6.040;2023-07-31T06:18:35;100575.72;;;17.41;100.00
14089;BME280;7120;52.890;6.040;2023-07-31T06:21:00;100572.22;;;17.44;100.00
14089;BME280;7120;52.890;6.040;2023-07-31T06:23:26;100582.56;;;17.47;100.00
14089;BME280;7120;52.890;6.040;2023-07-31T06:25:51;100577.75;;;17.44;100.00
14089;BME280;7120;52.890;6.040;2023-07-31T06:28:17;100576.22;;;17.47;100.00
14089;BME280;7120;52.890;6.040;2023-07-31T06:30:42;100576.69;;;17.49;100.00
14089;BME280;7120;52.890;6.040;2023-07-31T06:33:08;100569.47;;;17.44;100.00
14089;BME280;7120;52.890;6.040;2023-07-31T06:35:34;100571.22;;;17.37;100.00
14089;BME280;7120;52.890;6.040;2023-07-31T06:37:59;100568.03;;;17.35;100.00
14089;BME280;7120;52.890;6.040;2023-07-31T06:40:25;100574.34;;;17.35;100.00
14089;BME280;7120;52.890;6.040;2023-07-31T06:42:50;100565.25;;;17.35;100.00
14089;BME280;7120;52.890;6.040;2023-07-31T06:45:15;100559.53;;;17.27;100.00
14089;BME280;7120;52.890;6.040;2023-07-31T06:47:41;100555.44;;;17.21;100.00
14089;BME280;7120;52.890;6.040;2023-07-31T06:50:07;100558.63;;;17.23;100.00
14089;BME280;7120;52.890;6.040;2023-07-31T06:52:33;100551.16;;;17.24;100.00
14089;BME280;7120;52.890;6.040;2023-07-31T06:55:17;100551.16;;;17.24;100.00
14089;BME280;7120;52.890;6.040;2023-07-31T06:57:44;100534.28;;;17.13;100.00
14089;BME280;7120;52.890;6.040;2023-07-31T07:00:10;100546.03;;;17.10;100.00
14089;BME280;7120;52.890;6.040;2023-07-31T07:02:35;100543.38;;;17.14;100.00
14089;BME280;7120;52.890;6.040;2023-07-31T07:05:01;100521.53;;;17.09;100.00
14089;BME280;7120;52.890;6.040;2023-07-31T07:07:26;100526.94;;;17.05;100.00
14089;BME280;7120;52.890;6.040;2023-07-31T07:09:51;100528.72;;;16.97;100.00
14089;BME280;7120;52.890;6.040;2023-07-31T07:12:17;100530.78;;;17.00;100.00
14089;BME280;7120;52.890;6.040;2023-07-31T07:14:42;100525.34;;;17.04;100.00
14089;BME280;7120;52.890;6.040;2023-07-31T07:17:08;100516.41;;;16.95;100.00
14089;BME280;7120;52.890;6.040;2023-07-31T07:19:33;100515.50;;;16.91;100.00
14089;BME280;7120;52.890;6.040;2023-07-31T07:21:59;100522.00;;;16.83;100.00
14089;BME280;7120;52.890;6.040;2023-07-31T07:24:27;100518.25;;;16.91;100.00
14089;BME280;7120;52.890;6.040;2023-07-31T07:26:52;100515.63;;;16.94;100.00
14089;BME280;7120;52.890;6.040;2023-07-31T07:29:17;100513.13;;;17.05;100.00
14089;BME280;7120;52.890;6.040;2023-07-31T07:31:43;100515.63;;;17.10;100.00
14089;BME280;7120;52.890;6.040;2023-07-31T07:34:08;100507.09;;;17.15;100.00
14089;BME280;7120;52.890;6.040;2023-07-31T07:36:34;100518.13;;;16.99;100.00
14089;BME280;7120;52.890;6.040;2023-07-31T07:38:59;100513.28;;;16.96;100.00
14089;BME280;7120;52.890;6.040;2023-07-31T07:41:24;100516.16;;;17.00;100.00
14089;BME280;7120;52.890;6.040;2023-07-31T07:43:50;100515.19;;;17.08;100.00
14089;BME280;7120;52.890;6.040;2023-07-31T07:46:16;100510.84;;;17.07;100.00
14089;BME280;7120;52.890;6.040;2023-07-31T07:48:41;100509.84;;;17.15;100.00
14089;BME280;7120;52.890;6.040;2023-07-31T07:51:07;100506.09;;;17.08;100.00
14089;BME280;7120;52.890;6.040;2023-07-31T07:53:32;100509.75;;;17.12;100.00
14089;BME280;7120;52.890;6.040;2023-07-31T07:55:58;100505.56;;;17.18;100.00
14089;BME280;7120;52.890;6.040;2023-07-31T07:58:23;100506.56;;;17.25;100.00
14089;BME280;7120;52.890;6.040;2023-07-31T08:00:50;100500.34;;;17.28;100.00
14089;BME280;7120;52.890;6.040;2023-07-31T08:03:16;100504.97;;;17.24;100.00
14089;BME280;7120;52.890;6.040;2023-07-31T08:05:42;100500.34;;;17.28;100.00
14089;BME280;7120;52.890;6.040;2023-07-31T08:08:07;100492.47;;;17.30;100.00
14089;BME280;7120;52.890;6.040;2023-07-31T08:10:33;100492.41;;;17.43;100.00
14089;BME280;7120;52.890;6.040;2023-07-31T08:12:58;100494.00;;;17.44;100.00
14089;BME280;7120;52.890;6.040;2023-07-31T08:15:24;100487.56;;;17.40;100.00
14089;BME280;7120;52.890;6.040;2023-07-31T08:17:49;100481.72;;;17.41;100.00
14089;BME280;7120;52.890;6.040;2023-07-31T08:20:14;100483.03;;;17.47;100.00
14089;BME280;7120;52.890;6.040;2023-07-31T08:22:40;100483.13;;;17.51;100.00
14089;BME280;7120;52.890;6.040;2023-07-31T08:25:06;100482.94;;;17.60;100.00
14089;BME280;7120;52.890;6.040;2023-07-31T08:27:32;100472.88;;;17.51;100.00
14089;BME280;7120;52.890;6.040;2023-07-31T08:29:57;100478.13;;;17.56;100.00
14089;BME280;7120;52.890;6.040;2023-07-31T08:32:22;100477.41;;;17.60;100.00
14089;BME280;7120;52.890;6.040;2023-07-31T08:34:48;100469.63;;;17.65;100.00
14089;BME280;7120;52.890;6.040;2023-07-31T08:37:14;100469.09;;;17.75;100.00
14089;BME280;7120;52.890;6.040;2023-07-31T08:39:39;100467.59;;;17.78;100.00
14089;BME280;7120;52.890;6.040;2023-07-31T08:42:08;100468.31;;;17.75;100.00
14089;BME280;7120;52.890;6.040;2023-07-31T08:44:34;100460.97;;;17.82;100.00
14089;BME280;7120;52.890;6.040;2023-07-31T08:47:00;100461.34;;;17.81;100.00
14089;BME280;7120;52.890;6.040;2023-07-31T08:49:27;100458.66;;;17.84;100.00
14089;BME280;7120;52.890;6.040;2023-07-31T08:51:53;100464.63;;;17.87;100.00
14089;BME280;7120;52.890;6.040;2023-07-31T08:54:19;100465.16;;;17.92;100.00
14089;BME280;7120;52.890;6.040;2023-07-31T08:56:46;100459.69;;;17.76;100.00
14089;BME280;7120;52.890;6.040;2023-07-31T08:59:13;100470.25;;;17.90;100.00
14089;BME280;7120;52.890;6.040;2023-07-31T09:01:43;100462.66;;;17.87;100.00
14089;BME280;7120;52.890;6.040;2023-07-31T09:04:13;100460.88;;;17.95;100.00
14089;BME280;7120;52.890;6.040;2023-07-31T09:06:39;100458.66;;;17.84;100.00
14089;BME280;7120;52.890;6.040;2023-07-31T09:09:06;100464.09;;;17.81;100.00
14089;BME280;7120;52.890;6.040;2023-07-31T09:11:31;100466.00;;;17.77;100.00
14089;BME280;7120;52.890;6.040;2023-07-31T09:13:57;100451.75;;;17.94;100.00
14089;BME280;7120;52.890;6.040;2023-07-31T09:16:29;100464.53;;;17.99;100.00
14089;BME280;7120;52.890;6.040;2023-07-31T09:18:57;100463.25;;;18.12;100.00
14089;BME280;7120;52.890;6.040;2023-07-31T09:21:24;100452.22;;;18.16;100.00
14089;BME280;7120;52.890;6.040;2023-07-31T09:23:50;100447.50;;;18.35;100.00
14089;BME280;7120;52.890;6.040;2023-07-31T09:26:35;100445.31;;;18.45;100.00
14089;BME280;7120;52.890;6.040;2023-07-31T09:29:04;100436.28;;;18.67;100.00
14089;BME280;7120;52.890;6.040;2023-07-31T09:31:41;100436.91;;;18.80;100.00
14089;BME280;7120;52.890;6.040;2023-07-31T09:34:07;100426.28;;;18.82;100.00
14089;BME280;7120;52.890;6.040;2023-07-31T09:36:40;100430.25;;;19.04;100.00
14089;BME280;7120;52.890;6.040;2023-07-31T09:39:11;100421.50;;;19.25;100.00
14089;BME280;7120;52.890;6.040;2023-07-31T09:41:41;100426.72;;;19.30;100.00
14089;BME280;7120;52.890;6.040;2023-07-31T09:44:07;100424.19;;;19.21;100.00
14089;BME280;7120;52.890;6.040;2023-07-31T09:46:35;100421.72;;;19.62;100.00
14089;BME280;7120;52.890;6.040;2023-07-31T09:49:09;100405.66;;;19.52;100.00
14089;BME280;7120;52.890;6.040;2023-07-31T09:51:36;100409.03;;;19.64;100.00
14089;BME280;7120;52.890;6.040;2023-07-31T09:54:25;100390.19;;;19.51;100.00
14089;BME280;7120;52.890;6.040;2023-07-31T09:56:49;100391.25;;;19.42;100.00
14089;BME280;7120;52.890;6.040;2023-07-31T09:59:16;100409.84;;;19.65;100.00
14089;BME280;7120;52.890;6.040;2023-07-31T10:01:44;100400.34;;;19.66;100.00
14089;BME280;7120;52.890;6.040;2023-07-31T10:04:10;100399.78;;;19.57;100.00
14089;BME280;7120;52.890;6.040;2023-07-31T10:06:37;100402.31;;;19.39;100.00
14089;BME280;7120;52.890;6.040;2023-07-31T10:09:09;100405.88;;;19.39;100.00
14089;BME280;7120;52.890;6.040;2023-07-31T10:11:41;100400.34;;;19.66;100.00
14089;BME280;7120;52.890;6.040;2023-07-31T10:14:09;100395.34;;;19.52;100.00
14089;BME280;7120;52.890;6.040;2023-07-31T10:16:38;100404.19;;;19.58;100.00
14089;BME280;7120;52.890;6.040;2023-07-31T10:19:05;100401.56;;;19.42;100.00
14089;BME280;7120;52.890;6.040;2023-07-31T10:21:31;100401.31;;;19.77;100.00
14089;BME280;7120;52.890;6.040;2023-07-31T10:24:03;100397.59;;;19.43;100.00
14089;BME280;7120;52.890;6.040;2023-07-31T10:26:30;100394.91;;;19.73;100.00
14089;BME280;7120;52.890;6.040;2023-07-31T10:28:58;100389.03;;;19.78;100.00
14089;BME280;7120;52.890;6.040;2023-07-31T10:31:24;100395.91;;;19.88;100.00
14089;BME280;7120;52.890;6.040;2023-07-31T10:33:51;100381.47;;;20.05;100.00
14089;BME280;7120;52.890;6.040;2023-07-31T10:36:18;100381.03;;;19.73;100.00
14089;BME280;7120;52.890;6.040;2023-07-31T10:38:44;100379.00;;;19.70;100.00
14089;BME280;7120;52.890;6.040;2023-07-31T10:41:10;100392.78;;;19.63;100.00
14089;BME280;7120;52.890;6.040;2023-07-31T10:43:39;100385.81;;;19.49;100.00
14089;BME280;7120;52.890;6.040;2023-07-31T10:46:14;100390.44;;;19.65;100.00
14089;BME280;7120;52.890;6.040;2023-07-31T10:48:40;100396.06;;;19.45;100.00
14089;BME280;7120;52.890;6.040;2023-07-31T10:51:13;100394.22;;;19.30;100.00
14089;BME280;7120;52.890;6.040;2023-07-31T10:53:39;100406.50;;;19.29;100.00
14089;BME280;7120;52.890;6.040;2023-07-31T10:56:09;100395.97;;;19.15;100.00
14089;BME280;7120;52.890;6.040;2023-07-31T10:58:38;100410.97;;;19.37;100.00
14089;BME280;7120;52.890;6.040;2023-07-31T11:01:04;100410.22;;;19.14;100.00
14089;BME280;7120;52.890;6.040;2023-07-31T11:03:45;100411.31;;;19.09;100.00
14089;BME280;7120;52.890;6.040;2023-07-31T11:06:13;100410.75;;;19.23;100.00
14089;BME280;7120;52.890;6.040;2023-07-31T11:08:46;100412.53;;;19.35;100.00
14089;BME280;7120;52.890;6.040;2023-07-31T11:11:17;100418.66;;;19.21;100.00
14089;BME280;7120;52.890;6.040;2023-07-31T11:16:11;100404.06;;;19.24;100.00
14089;BME280;7120;52.890;6.040;2023-07-31T11:18:44;100411.75;;;19.34;100.00
14089;BME280;7120;52.890;6.040;2023-07-31T11:21:14;100405.09;;;19.39;100.00
14089;BME280;7120;52.890;6.040;2023-07-31T11:23:40;100403.56;;;19.18;100.00
14089;BME280;7120;52.890;6.040;2023-07-31T11:26:06;100420.38;;;19.06;100.00
14089;BME280;7120;52.890;6.040;2023-07-31T11:28:34;100409.34;;;19.10;100.00
14089;BME280;7120;52.890;6.040;2023-07-31T11:31:00;100418.66;;;18.75;100.00
14089;BME280;7120;52.890;6.040;2023-07-31T11:33:26;100419.94;;;18.81;100.00
14089;BME280;7120;52.890;6.040;2023-07-31T11:35:52;100408.97;;;18.88;100.00
14089;BME280;7120;52.890;6.040;2023-07-31T11:38:25;100408.06;;;19.04;100.00
14089;BME280;7120;52.890;6.040;2023-07-31T11:40:59;100410.41;;;19.02;100.00
14089;BME280;7120;52.890;6.040;2023-07-31T11:43:24;100411.75;;;19.11;100.00
14089;BME280;7120;52.890;6.040;2023-07-31T11:45:54;100402.31;;;19.39;100.00
14089;BME280;7120;52.890;6.040;2023-07-31T11:50:52;100400.06;;;19.48;100.00
14089;BME280;7120;52.890;6.040;2023-07-31T11:53:26;100407.13;;;19.19;100.00
14089;BME280;7120;52.890;6.040;2023-07-31T11:55:55;100409.16;;;19.22;100.00
14089;BME280;7120;52.890;6.040;2023-07-31T11:58:21;100408.06;;;19.27;100.00
14089;BME280;7120;52.890;6.040;2023-07-31T12:00:47;100402.53;;;19.04;100.00
14089;BME280;7120;52.890;6.040;2023-07-31T12:03:15;100422.22;;;19.21;100.00
14089;BME280;7120;52.890;6.040;2023-07-31T12:05:40;100420.06;;;19.34;100.00
14089;BME280;7120;52.890;6.040;2023-07-31T12:08:10;100421.59;;;19.09;100.00
14089;BME280;7120;52.890;6.040;2023-07-31T12:10:38;100413.50;;;18.97;100.00
14089;BME280;7120;52.890;6.040;2023-07-31T12:13:08;100408.78;;;19.24;100.00
14089;BME280;7120;52.890;6.040;2023-07-31T12:15:40;100406.03;;;19.01;100.00
14089;BME280;7120;52.890;6.040;2023-07-31T12:18:09;100419.97;;;19.04;100.00
14089;BME280;7120;52.890;6.040;2023-07-31T12:20:34;100417.91;;;19.01;100.00
14089;BME280;7120;52.890;6.040;2023-07-31T12:23:01;100419.06;;;19.23;100.00
14089;BME280;7120;52.890;6.040;2023-07-31T12:25:31;100413.72;;;19.34;100.00
14089;BME280;7120;52.890;6.040;2023-07-31T12:27:57;100415.06;;;19.20;100.00
14089;BME280;7120;52.890;6.040;2023-07-31T12:30:35;100416.53;;;19.37;100.00
14089;BME280;7120;52.890;6.040;2023-07-31T12:33:05;100404.72;;;19.40;100.00
14089;BME280;7120;52.890;6.040;2023-07-31T12:35:38;100408.38;;;19.48;100.00
14089;BME280;7120;52.890;6.040;2023-07-31T12:38:03;100416.09;;;19.85;100.00
14089;BME280;7120;52.890;6.040;2023-07-31T12:40:29;100387.59;;;20.21;100.00
14089;BME280;7120;52.890;6.040;2023-07-31T12:42:54;100371.94;;;20.40;100.00
14089;BME280;7120;52.890;6.040;2023-07-31T12:45:19;100373.88;;;20.36;100.00
14089;BME280;7120;52.890;6.040;2023-07-31T12:47:46;100363.69;;;20.10;100.00
14089;BME280;7120;52.890;6.040;2023-07-31T12:50:12;100374.31;;;20.04;100.00
14089;BME280;7120;52.890;6.040;2023-07-31T12:52:38;100361.06;;;20.24;100.00
14089;BME280;7120;52.890;6.040;2023-07-31T12:55:03;100367.28;;;20.14;100.00
14089;BME280;7120;52.890;6.040;2023-07-31T12:57:30;100371.78;;;19.92;100.00